Time;durP1;ratioP1;P1;durP2;ratioP2;P2;SDS_P1;SDS_P2;PMS_P1;PMS_P2;Temp;Humidity;BMP_temperature;BMP_pressure;BME280_temperature;BME280_humidity;BME280_pressure;Samples;Min_cycle;Max_cycle;Signal;HPM_P1;HPM_P2
2022/03/16 00:00:27;;;;;;;82.70;37.40;;;;;;;-2.82;67.54;102183.31;107564;1246;75443;-68
2022/03/16 00:03:08;;;;;;;79.30;37.10;;;;;;;-2.85;67.61;102180.56;107469;1246;73045;-68
2022/03/16 00:05:37;;;;;;;69.30;36.50;;;;;;;-2.87;67.28;102172.38;107639;1246;70742;-67
2022/03/16 00:08:05;;;;;;;79.40;36.60;;;;;;;-2.89;68.25;102172.88;107501;1246;73479;-68
2022/03/16 00:10:35;;;;;;;76.80;37.40;;;;;;;-2.88;67.94;102171.88;107639;1246;60006;-69
2022/03/16 00:13:03;;;;;;;78.40;37.10;;;;;;;-2.89;67.89;102167.76;107627;1246;60927;-67
2022/03/16 00:15:32;;;;;;;73.80;37.00;;;;;;;-2.89;67.94;102164.85;107594;1246;74678;-67
2022/03/16 00:18:01;;;;;;;75.20;37.40;;;;;;;-2.91;68.00;102158.36;107595;1246;72664;-67
2022/03/16 00:20:30;;;;;;;79.50;38.80;;;;;;;-2.96;67.30;102154.41;107546;1246;70395;-66
2022/03/16 00:22:59;;;;;;;74.50;37.40;;;;;;;-2.96;67.77;102153.05;107549;1246;73560;-68
2022/03/16 00:25:28;;;;;;;84.20;38.20;;;;;;;-2.94;67.81;102149.84;107572;1246;60526;-67
2022/03/16 00:27:57;;;;;;;81.10;39.30;;;;;;;-2.94;67.70;102145.92;107587;1246;58932;-69
2022/03/16 00:30:26;;;;;;;78.60;41.40;;;;;;;-2.94;68.26;102144.73;107683;1246;72738;-69
2022/03/16 00:32:55;;;;;;;82.30;39.30;;;;;;;-2.95;66.74;102141.46;107775;1245;70351;-70
2022/03/16 00:35:25;;;;;;;81.20;37.60;;;;;;;-2.95;66.59;102135.84;107619;1246;69809;-68
2022/03/16 00:37:54;;;;;;;78.40;39.50;;;;;;;-2.96;68.12;102133.27;107491;1246;72758;-67
2022/03/16 00:40:23;;;;;;;76.00;37.90;;;;;;;-2.98;67.82;102128.67;107497;1246;60886;-67
2022/03/16 00:42:52;;;;;;;68.90;35.10;;;;;;;-2.99;67.89;102127.30;107554;1245;61179;-68
2022/03/16 00:45:21;;;;;;;76.10;36.20;;;;;;;-3.00;67.55;102121.15;107421;1246;74000;-67
2022/03/16 00:47:50;;;;;;;81.80;40.40;;;;;;;-3.03;67.93;102116.52;107506;1246;73334;-65
2022/03/16 00:50:19;;;;;;;83.70;42.30;;;;;;;-3.04;68.25;102112.61;107541;1245;68559;-67
2022/03/16 00:52:48;;;;;;;107.60;48.40;;;;;;;-3.06;68.12;102111.40;107472;1246;72369;-68
2022/03/16 00:55:18;;;;;;;104.50;47.30;;;;;;;-3.08;67.57;102109.84;107440;1246;61291;-67
2022/03/16 00:57:48;;;;;;;95.10;43.60;;;;;;;-3.12;67.85;102106.24;107388;1246;58923;-66
2022/03/16 01:00:17;;;;;;;85.50;41.00;;;;;;;-3.14;68.08;102100.44;107380;1246;72825;-69
2022/03/16 01:02:46;;;;;;;89.40;39.70;;;;;;;-3.15;68.01;102093.63;107391;1246;70349;-68
2022/03/16 01:05:16;;;;;;;78.10;37.80;;;;;;;-3.18;67.94;102092.06;107514;1245;71523;-73
2022/03/16 01:07:47;;;;;;;81.80;38.00;;;;;;;-3.20;68.56;102083.36;107068;1249;74747;-67
2022/03/16 01:10:35;;;;;;;80.90;38.70;;;;;;;-3.18;68.77;102078.26;107306;1246;61869;-70
2022/03/16 01:13:04;;;;;;;84.80;39.90;;;;;;;-3.18;68.80;102077.73;107323;1246;59568;-70
2022/03/16 01:15:34;;;;;;;83.20;41.50;;;;;;;-3.19;68.85;102072.28;107611;1245;72494;-74
2022/03/16 01:18:03;;;;;;;89.80;42.40;;;;;;;-3.16;68.84;102074.20;107653;1246;70397;-72
2022/03/16 01:20:33;;;;;;;83.50;40.80;;;;;;;-3.17;68.32;102073.16;107634;1246;69438;-69
2022/03/16 01:23:02;;;;;;;84.30;40.80;;;;;;;-3.20;67.84;102070.06;107466;1246;73619;-66
2022/03/16 01:25:31;;;;;;;89.30;40.00;;;;;;;-3.23;68.18;102069.71;107675;1246;59593;-66
2022/03/16 01:28:00;;;;;;;79.00;37.70;;;;;;;-3.25;69.07;102070.37;107667;1246;61347;-67
2022/03/16 01:30:30;;;;;;;72.70;38.30;;;;;;;-3.24;69.07;102069.52;107535;1245;72229;-65
2022/03/16 01:32:59;;;;;;;75.60;36.90;;;;;;;-3.22;69.09;102066.15;107303;1246;72314;-68
2022/03/16 01:35:29;;;;;;;76.10;38.70;;;;;;;-3.21;68.74;102062.56;107303;1246;72086;-65
2022/03/16 01:37:58;;;;;;;81.00;38.80;;;;;;;-3.22;68.66;102061.03;107562;1246;73724;-64
2022/03/16 01:40:27;;;;;;;80.40;40.20;;;;;;;-3.25;68.84;102059.81;107665;1246;61636;-65
2022/03/16 01:42:55;;;;;;;73.00;37.20;;;;;;;-3.25;69.36;102060.32;107615;1246;61113;-65
2022/03/16 01:45:24;;;;;;;81.60;38.60;;;;;;;-3.26;68.99;102062.37;107684;1246;73876;-67
2022/03/16 01:47:54;;;;;;;78.50;38.40;;;;;;;-3.29;69.06;102062.17;107669;1246;72491;-68
2022/03/16 01:50:23;;;;;;;77.70;37.60;;;;;;;-3.33;69.12;102061.14;107583;1246;71150;-68
2022/03/16 01:52:53;;;;;;;76.80;37.80;;;;;;;-3.34;69.30;102064.37;107781;1246;72506;-69
2022/03/16 01:55:22;;;;;;;71.40;35.60;;;;;;;-3.34;69.59;102060.95;107798;1246;59622;-67
2022/03/16 01:57:52;;;;;;;81.70;38.30;;;;;;;-3.36;69.49;102063.66;107492;1247;58931;-62
2022/03/16 02:00:22;;;;;;;78.30;37.30;;;;;;;-3.38;69.69;102065.70;107417;1247;72751;-68
2022/03/16 02:02:51;;;;;;;75.90;38.30;;;;;;;-3.43;69.60;102064.98;107606;1245;71142;-66
2022/03/16 02:05:20;;;;;;;77.50;37.30;;;;;;;-3.47;69.62;102061.89;107367;1248;68677;-69
2022/03/16 02:07:50;;;;;;;82.00;38.30;;;;;;;-3.49;69.43;102062.89;107890;1247;74644;-65
2022/03/16 02:10:21;;;;;;;74.40;37.30;;;;;;;-3.52;69.49;102058.80;107518;1246;59141;-66
2022/03/16 02:12:51;;;;;;;72.10;36.10;;;;;;;-3.55;69.35;102055.19;107525;1246;60442;-64
2022/03/16 02:15:21;;;;;;;74.60;35.90;;;;;;;-3.57;69.56;102053.65;107436;1246;73573;-65
2022/03/16 02:17:55;;;;;;;76.00;37.90;;;;;;;-3.60;69.48;102054.98;107278;1246;71220;-65
2022/03/16 02:20:27;;;;;;;74.40;38.80;;;;;;;-3.62;70.00;102046.63;107477;1246;70929;-65
2022/03/16 02:23:06;;;;;;;82.20;40.90;;;;;;;-3.64;70.12;102047.10;107525;1246;74254;-65
2022/03/16 02:25:54;;;;;;;79.10;40.50;;;;;;;-3.65;70.44;102047.10;107482;1246;61460;-69
2022/03/16 02:28:25;;;;;;;77.70;39.40;;;;;;;-3.68;70.41;102043.01;107409;1248;59558;-67
2022/03/16 02:30:54;;;;;;;72.00;37.30;;;;;;;-3.70;70.58;102038.55;107517;1246;74435;-67
2022/03/16 02:33:23;;;;;;;77.30;40.20;;;;;;;-3.72;70.16;102036.84;107485;1246;70333;-67
2022/03/16 02:35:52;;;;;;;88.50;42.00;;;;;;;-3.73;70.48;102032.24;107554;1246;68867;-66
2022/03/16 02:38:21;;;;;;;92.10;42.50;;;;;;;-3.75;70.54;102026.94;107451;1246;74765;-66
2022/03/16 02:40:50;;;;;;;88.20;42.30;;;;;;;-3.76;70.36;102020.28;107512;1246;60246;-67
2022/03/16 02:43:18;;;;;;;88.60;42.00;;;;;;;-3.79;70.44;102020.45;107441;1246;61702;-64
2022/03/16 02:45:48;;;;;;;83.70;41.30;;;;;;;-3.82;70.48;102016.16;107533;1246;75282;-65
2022/03/16 02:48:16;;;;;;;85.90;44.90;;;;;;;-3.84;70.27;102009.34;107492;1246;72998;-65
2022/03/16 02:50:46;;;;;;;94.60;47.00;;;;;;;-3.87;70.63;102012.38;107455;1247;70917;-63
2022/03/16 02:53:16;;;;;;;87.20;43.50;;;;;;;-3.89;70.81;102015.09;107568;1246;70867;-65
2022/03/16 02:55:51;;;;;;;99.40;47.30;;;;;;;-3.91;70.73;102011.68;107525;1246;61378;-67
2022/03/16 02:58:20;;;;;;;93.50;43.80;;;;;;;-3.89;71.08;102005.73;107571;1246;59120;-65
2022/03/16 03:00:49;;;;;;;87.20;44.00;;;;;;;-3.88;71.10;102004.71;107423;1249;71933;-66
2022/03/16 03:03:18;;;;;;;91.90;46.80;;;;;;;-3.89;70.60;102007.94;107287;1246;71394;-67
2022/03/16 03:05:47;;;;;;;102.60;47.10;;;;;;;-3.92;70.21;102006.39;107462;1246;69110;-68
2022/03/16 03:08:16;;;;;;;106.30;50.50;;;;;;;-3.95;70.38;102007.73;107501;1246;73607;-68
2022/03/16 03:10:45;;;;;;;102.70;48.30;;;;;;;-3.98;70.97;102006.15;107451;1245;61885;-67
2022/03/16 03:13:15;;;;;;;99.60;47.80;;;;;;;-3.99;71.21;102010.57;107470;1246;60020;-65
2022/03/16 03:15:43;;;;;;;99.60;46.30;;;;;;;-4.00;71.11;102011.08;107481;1246;74480;-67
2022/03/16 03:18:12;;;;;;;95.20;47.80;;;;;;;-3.99;69.94;102014.66;107467;1247;72721;-65
2022/03/16 03:20:41;;;;;;;98.00;48.20;;;;;;;-4.01;70.10;102015.51;107547;1246;70117;-66
2022/03/16 03:23:10;;;;;;;101.00;47.90;;;;;;;-3.99;71.20;102016.36;107556;1246;74697;-66
2022/03/16 03:25:39;;;;;;;95.00;46.60;;;;;;;-4.01;71.73;102014.65;107549;1246;60432;-65
2022/03/16 03:28:08;;;;;;;68.30;31.60;;;;;;;-4.06;70.64;102003.55;107520;1249;60099;-69
2022/03/16 03:30:37;;;;;;;74.30;33.10;;;;;;;-4.12;69.28;101992.26;107512;1246;72523;-67
2022/03/16 03:33:07;;;;;;;49.00;22.70;;;;;;;-4.21;70.02;101977.89;107522;1246;68596;-68
2022/03/16 03:35:36;;;;;;;75.20;35.10;;;;;;;-4.27;70.49;101972.39;107471;1246;71526;-64
2022/03/16 03:38:05;;;;;;;75.90;32.20;;;;;;;-4.36;71.32;101966.52;107470;1246;74887;-67
2022/03/16 03:40:33;;;;;;;81.50;38.40;;;;;;;-4.36;69.66;101971.81;107455;1247;60305;-66
2022/03/16 03:43:02;;;;;;;82.90;39.00;;;;;;;-4.39;70.33;101971.60;107373;1248;59481;-65
2022/03/16 03:45:31;;;;;;;85.80;42.50;;;;;;;-4.37;71.32;101967.04;107377;1246;72450;-65
2022/03/16 03:48:00;;;;;;;90.10;43.00;;;;;;;-4.31;71.86;101962.15;107451;1246;70400;-65
2022/03/16 03:50:29;;;;;;;91.80;44.50;;;;;;;-4.25;71.99;101961.52;107390;1246;68744;-65
2022/03/16 03:52:59;;;;;;;90.70;44.10;;;;;;;-4.21;71.83;101962.41;107473;1246;74277;-64
2022/03/16 03:55:28;;;;;;;94.00;46.30;;;;;;;-4.18;72.01;101969.08;107438;1246;61000;-64
2022/03/16 03:57:57;;;;;;;96.40;45.50;;;;;;;-4.16;72.40;101968.23;107457;1246;60724;-65
2022/03/16 04:00:26;;;;;;;101.40;47.80;;;;;;;-4.14;72.42;101966.21;107462;1246;74060;-64
2022/03/16 04:02:55;;;;;;;94.50;46.30;;;;;;;-4.13;71.88;101976.95;107541;1246;69618;-65
2022/03/16 04:05:24;;;;;;;94.50;43.70;;;;;;;-4.18;72.03;101975.53;107618;1246;68837;-69
2022/03/16 04:07:53;;;;;;;89.60;43.20;;;;;;;-4.13;71.65;101983.75;107500;1246;72352;-67
2022/03/16 04:10:22;;;;;;;96.00;44.10;;;;;;;-4.08;71.55;101987.37;107505;1246;59836;-66
2022/03/16 04:12:51;;;;;;;99.50;45.20;;;;;;;-4.05;71.92;101987.89;107520;1247;59461;-67
2022/03/16 04:15:20;;;;;;;99.10;46.30;;;;;;;-4.00;71.57;101988.28;107496;1246;72798;-67
2022/03/16 04:17:49;;;;;;;97.20;46.60;;;;;;;-3.94;71.05;101990.02;107381;1246;71271;-65
2022/03/16 04:20:19;;;;;;;94.40;46.70;;;;;;;-3.90;71.07;101991.61;107498;1246;68052;-65
2022/03/16 04:22:48;;;;;;;112.30;53.30;;;;;;;-3.87;70.86;101985.13;107489;1247;75075;-68
2022/03/16 04:25:17;;;;;;;97.70;48.40;;;;;;;-3.83;72.00;101978.36;107456;1246;59669;-64
2022/03/16 04:27:46;;;;;;;124.40;53.20;;;;;;;-3.80;71.83;101981.27;107388;1246;59553;-65
2022/03/16 04:30:15;;;;;;;101.80;51.70;;;;;;;-3.78;71.86;101984.02;107383;1246;75403;-64
2022/03/16 04:32:44;;;;;;;109.80;50.90;;;;;;;-3.73;70.52;101982.01;107270;1246;72483;-64
2022/03/16 04:35:12;;;;;;;108.40;56.00;;;;;;;-3.68;70.98;101976.77;107401;1246;70095;-65
2022/03/16 04:37:42;;;;;;;109.90;53.80;;;;;;;-3.64;71.22;101978.66;107353;1246;74579;-66
2022/03/16 04:40:12;;;;;;;111.60;52.90;;;;;;;-3.59;70.61;101985.67;107470;1246;59605;-66
2022/03/16 04:42:41;;;;;;;112.30;53.00;;;;;;;-3.53;71.50;101982.98;107447;1246;62110;-65
2022/03/16 04:45:10;;;;;;;107.40;52.40;;;;;;;-3.44;71.22;101981.17;107396;1246;72976;-66
2022/03/16 04:47:39;;;;;;;120.80;55.10;;;;;;;-3.37;70.85;101989.55;107399;1246;70692;-63
2022/03/16 04:50:09;;;;;;;112.10;55.00;;;;;;;-3.31;70.56;101993.16;107500;1246;68462;-64
2022/03/16 04:52:46;;;;;;;105.00;51.90;;;;;;;-3.24;70.73;101998.14;107502;1246;73493;-65
2022/03/16 04:55:16;;;;;;;108.00;53.20;;;;;;;-3.13;70.24;102003.81;107544;1246;62967;-68
2022/03/16 04:57:45;;;;;;;106.50;51.40;;;;;;;-3.03;69.92;102013.23;107664;1246;60671;-64
2022/03/16 05:00:14;;;;;;;106.70;52.70;;;;;;;-2.91;69.79;102019.42;107585;1246;74331;-66
2022/03/16 05:02:43;;;;;;;103.70;50.80;;;;;;;-2.80;69.43;102011.45;107579;1246;70635;-65
2022/03/16 05:05:13;;;;;;;97.40;46.70;;;;;;;-2.67;69.04;102014.05;107457;1246;71576;-67
2022/03/16 05:07:42;;;;;;;108.10;52.50;;;;;;;-2.56;69.38;102017.67;107529;1246;73952;-67
2022/03/16 05:10:11;;;;;;;105.50;52.40;;;;;;;-2.43;68.46;102024.01;107612;1246;60889;-67
2022/03/16 05:12:44;;;;;;;110.60;55.80;;;;;;;-2.29;68.17;102035.64;107614;1246;60959;-65
2022/03/16 05:15:19;;;;;;;114.90;55.80;;;;;;;-2.17;67.87;102039.92;107381;1247;76187;-68
2022/03/16 05:17:48;;;;;;;111.80;55.20;;;;;;;-2.08;67.62;102038.41;107625;1246;73634;-67
2022/03/16 05:20:17;;;;;;;111.50;53.80;;;;;;;-2.00;67.12;102034.31;107665;1246;68770;-68
2022/03/16 05:22:53;;;;;;;97.90;49.60;;;;;;;-1.96;67.37;102039.62;107559;1246;74146;-67
2022/03/16 05:25:30;;;;;;;107.80;50.70;;;;;;;-1.87;66.79;102032.77;107525;1246;62372;-66
2022/03/16 05:27:59;;;;;;;109.80;57.10;;;;;;;-1.84;66.63;102009.90;107686;1246;60260;-68
2022/03/16 05:30:29;;;;;;;114.10;55.60;;;;;;;-1.87;66.57;101978.65;107496;1247;74461;-67
2022/03/16 05:33:02;;;;;;;116.70;54.60;;;;;;;-1.75;66.98;101951.65;107608;1246;72684;-66
2022/03/16 05:35:31;;;;;;;125.90;60.40;;;;;;;-1.71;66.53;101938.14;107534;1245;69190;-68
2022/03/16 05:38:02;;;;;;;121.10;58.80;;;;;;;-1.69;65.98;101951.14;107401;1247;72839;-67
2022/03/16 05:40:32;;;;;;;100.40;48.60;;;;;;;-1.79;66.34;101966.02;107545;1247;59593;-66
2022/03/16 05:43:01;;;;;;;110.60;55.80;;;;;;;-1.75;66.56;101973.69;107671;1244;60193;-66
2022/03/16 05:45:30;;;;;;;92.10;46.70;;;;;;;-1.70;66.52;101978.11;107629;1245;74423;-68
2022/03/16 05:48:00;;;;;;;112.40;49.90;;;;;;;-1.67;66.32;101985.45;107543;1246;73706;-67
2022/03/16 05:50:29;;;;;;;109.00;52.40;;;;;;;-1.65;66.65;101993.84;107532;1246;71127;-68
2022/03/16 05:53:01;;;;;;;102.80;52.60;;;;;;;-1.60;66.45;101993.83;108712;1246;73317;-67
2022/03/16 05:55:30;;;;;;;105.40;50.30;;;;;;;-1.52;66.16;101982.01;107360;1246;60598;-70
2022/03/16 05:57:59;;;;;;;105.90;54.10;;;;;;;-1.37;66.14;101971.38;107546;1246;62111;-72
2022/03/16 06:00:28;;;;;;;98.40;50.50;;;;;;;-1.23;65.20;101972.20;107546;1246;75453;-69
2022/03/16 06:02:57;;;;;;;102.90;54.80;;;;;;;-1.09;64.47;101969.23;107489;1246;70768;-69
2022/03/16 06:05:27;;;;;;;97.40;45.00;;;;;;;-1.02;64.00;101958.77;107536;1246;70647;-67
2022/03/16 06:07:56;;;;;;;98.30;48.70;;;;;;;-0.91;64.07;101955.98;107622;1246;73548;-70
2022/03/16 06:10:25;;;;;;;94.00;46.50;;;;;;;-0.84;63.58;101959.71;107731;1246;60912;-69
2022/03/16 06:12:56;;;;;;;93.40;48.50;;;;;;;-0.78;63.71;101960.19;107591;1246;61121;-68
2022/03/16 06:15:27;;;;;;;85.30;45.40;;;;;;;-0.80;62.65;101966.35;107636;1246;72948;-69
2022/03/16 06:17:59;;;;;;;87.10;45.10;;;;;;;-0.81;62.50;101965.33;107250;1246;601910;-68
2022/03/16 06:20:28;;;;;;;89.70;47.60;;;;;;;-0.77;62.58;101954.88;107743;1246;70564;-68
2022/03/16 06:22:57;;;;;;;95.90;47.80;;;;;;;-0.80;62.62;101941.05;107600;1246;73515;-66
2022/03/16 06:25:26;;;;;;;96.40;50.50;;;;;;;-0.75;62.37;101945.29;107474;1248;59608;-69
2022/03/16 06:27:55;;;;;;;98.60;48.40;;;;;;;-0.76;62.58;101951.45;107646;1246;61395;-68
2022/03/16 06:30:25;;;;;;;92.00;46.50;;;;;;;-0.68;62.49;101945.08;107472;1246;74084;-69
2022/03/16 06:32:54;;;;;;;88.60;46.30;;;;;;;-0.57;62.41;101939.02;107542;1246;73221;-67
2022/03/16 06:35:24;;;;;;;104.50;52.40;;;;;;;-0.48;62.30;101935.20;107386;1246;69164;-67
2022/03/16 06:37:53;;;;;;;89.20;43.70;;;;;;;-0.37;62.30;101939.56;107609;1246;73889;-70
2022/03/16 06:40:22;;;;;;;86.10;45.70;;;;;;;-0.22;61.85;101947.84;107440;1246;59533;-66
2022/03/16 06:42:57;;;;;;;77.80;44.70;;;;;;;-0.10;61.23;101951.84;107547;1246;59332;-68
2022/03/16 06:45:28;;;;;;;86.50;44.10;;;;;;;0.03;60.94;101953.27;107731;1246;72444;-68
2022/03/16 06:48:00;;;;;;;88.90;45.30;;;;;;;0.17;60.59;101949.73;107457;1246;70651;-69
2022/03/16 06:50:30;;;;;;;77.30;37.30;;;;;;;0.27;60.27;101955.95;107321;1248;71133;-70
2022/03/16 06:52:59;;;;;;;79.80;41.50;;;;;;;0.35;60.12;101976.44;107455;1246;75299;-68
2022/03/16 06:55:29;;;;;;;88.10;43.50;;;;;;;0.44;60.26;101981.50;107524;1247;61866;-68
2022/03/16 06:57:58;;;;;;;89.90;43.80;;;;;;;0.56;60.27;101977.42;107421;1247;60644;-70
2022/03/16 07:00:27;;;;;;;74.30;36.70;;;;;;;0.62;59.41;101977.02;107449;1246;74920;-70
2022/03/16 07:03:01;;;;;;;67.10;31.00;;;;;;;0.79;59.54;101997.92;107351;1246;73135;-69
2022/03/16 07:05:39;;;;;;;69.90;34.70;;;;;;;0.93;58.88;102022.46;107501;1246;71271;-70
2022/03/16 07:08:13;;;;;;;66.30;34.40;;;;;;;1.05;58.20;102039.83;107154;1248;71641;-68
2022/03/16 07:10:45;;;;;;;74.90;28.50;;;;;;;1.05;58.19;102037.42;107392;1246;59106;-68
2022/03/16 07:13:14;;;;;;;89.00;46.00;;;;;;;0.80;58.55;102042.15;107452;1246;60505;-69
2022/03/16 07:15:45;;;;;;;90.10;45.00;;;;;;;0.42;59.75;102062.59;107340;1246;73378;-70
2022/03/16 07:18:15;;;;;;;87.30;48.60;;;;;;;0.31;60.54;102059.77;107484;1246;70700;-71
2022/03/16 07:20:44;;;;;;;94.50;48.10;;;;;;;0.33;60.52;102045.53;107593;1246;69799;-68
2022/03/16 07:23:16;;;;;;;91.40;48.00;;;;;;;0.35;60.94;102032.48;107662;1245;73922;-70
2022/03/16 07:25:48;;;;;;;96.80;50.60;;;;;;;0.43;61.38;102028.30;107347;1246;60978;-70
2022/03/16 07:28:19;;;;;;;91.20;49.00;;;;;;;0.57;61.46;102042.22;107435;1246;60958;-69
2022/03/16 07:30:48;;;;;;;99.10;49.40;;;;;;;0.72;61.03;102052.36;107284;1246;72541;-68
2022/03/16 07:33:18;;;;;;;93.40;48.30;;;;;;;0.83;60.74;102050.36;107482;1246;70282;-68
2022/03/16 07:35:48;;;;;;;90.00;47.90;;;;;;;0.87;60.13;102040.02;107488;1246;69688;-68
2022/03/16 07:38:19;;;;;;;91.00;48.40;;;;;;;0.88;60.23;102027.84;107444;1245;72962;-68
2022/03/16 07:40:49;;;;;;;93.90;48.10;;;;;;;1.00;59.52;102016.55;107476;1246;59841;-68
2022/03/16 07:43:18;;;;;;;94.70;49.20;;;;;;;1.12;59.39;102003.70;107245;1247;61489;-68
2022/03/16 07:45:48;;;;;;;97.40;48.20;;;;;;;1.22;59.11;102005.80;107315;1247;71950;-69
2022/03/16 07:48:17;;;;;;;84.50;43.50;;;;;;;1.40;58.91;102016.04;107474;1246;71866;-68
2022/03/16 07:50:46;;;;;;;67.80;36.10;;;;;;;1.64;58.65;102023.27;107369;1246;70770;-68
2022/03/16 07:53:16;;;;;;;76.80;39.30;;;;;;;1.87;57.58;102010.73;107446;1247;74775;-70
2022/03/16 07:55:49;;;;;;;92.30;47.30;;;;;;;1.92;56.95;102001.73;107502;1246;60094;-70
2022/03/16 07:58:18;;;;;;;;;;;;;;;1.95;57.07;101997.89;107507;1246;60575;-69
2022/03/16 08:00:47;;;;;;;92.80;47.10;;;;;;;2.05;56.73;102004.78;107469;1247;75841;-70
2022/03/16 08:03:16;;;;;;;89.50;46.80;;;;;;;2.19;56.48;102008.48;107517;1247;72256;-69
2022/03/16 08:05:47;;;;;;;87.20;44.30;;;;;;;2.37;56.91;102011.11;107353;1245;71376;-68
2022/03/16 08:08:18;;;;;;;90.10;43.60;;;;;;;2.56;56.89;102008.35;107524;1246;72971;-70
2022/03/16 08:10:47;;;;;;;78.20;40.60;;;;;;;2.74;54.72;102007.15;107460;1247;61371;-70
2022/03/16 08:13:16;;;;;;;77.10;39.50;;;;;;;2.94;55.72;102008.48;107592;1246;61191;-70
2022/03/16 08:15:45;;;;;;;76.60;40.10;;;;;;;3.12;54.33;101999.50;107481;1246;73306;-71
2022/03/16 08:18:14;;;;;;;82.00;39.30;;;;;;;3.23;52.77;101997.73;107474;1247;69895;-70
2022/03/16 08:20:43;;;;;;;74.20;39.40;;;;;;;3.40;53.84;102003.56;107556;1246;68183;-69
2022/03/16 08:23:13;;;;;;;68.80;37.60;;;;;;;3.44;52.25;102005.70;107368;1246;72339;-68
2022/03/16 08:25:57;;;;;;;73.50;38.00;;;;;;;3.54;52.43;102005.84;107402;1247;59659;-69
2022/03/16 08:28:26;;;;;;;64.10;35.20;;;;;;;3.61;52.10;102006.36;107475;1247;61256;-70
2022/03/16 08:30:55;;;;;;;75.90;38.00;;;;;;;3.71;52.90;102007.67;107529;1246;73595;-68
2022/03/16 08:33:25;;;;;;;63.90;35.10;;;;;;;3.75;52.04;102004.67;107500;1246;72967;-69
2022/03/16 08:35:54;;;;;;;59.30;35.00;;;;;;;3.81;51.82;102009.54;107282;1247;72213;-67
2022/03/16 08:38:24;;;;;;;66.40;35.70;;;;;;;3.87;51.78;102011.26;107449;1247;74084;-70
2022/03/16 08:40:53;;;;;;;63.60;35.20;;;;;;;3.93;51.50;102008.90;107329;1247;61937;-70
2022/03/16 08:43:23;;;;;;;68.50;35.40;;;;;;;3.94;51.53;101997.32;107482;1247;61816;-70
2022/03/16 08:45:53;;;;;;;62.70;33.40;;;;;;;3.90;51.25;101998.09;107464;1247;74406;-69
2022/03/16 08:48:22;;;;;;;64.00;34.80;;;;;;;3.94;51.45;101988.52;107552;1247;69448;-70
2022/03/16 08:50:52;;;;;;;66.00;35.40;;;;;;;4.05;51.07;102003.93;107641;1247;67989;-69
2022/03/16 08:53:21;;;;;;;61.80;34.00;;;;;;;4.17;50.73;102010.20;107342;1246;74009;-70
2022/03/16 08:55:50;;;;;;;70.20;34.90;;;;;;;4.31;51.00;102013.65;107608;1246;60309;-70
2022/03/16 08:58:19;;;;;;;56.20;32.90;;;;;;;4.32;50.18;102009.47;107670;1246;58371;-69
2022/03/16 09:00:48;;;;;;;64.70;34.40;;;;;;;4.42;50.60;102008.36;107525;1247;72814;-69
2022/03/16 09:03:17;;;;;;;61.00;34.90;;;;;;;4.41;49.95;102013.38;107639;1246;69575;-69
2022/03/16 09:05:47;;;;;;;63.80;32.90;;;;;;;4.37;50.51;102020.38;107574;1247;70694;-68
2022/03/16 09:08:18;;;;;;;57.10;32.50;;;;;;;4.45;50.17;102022.91;107590;1245;74818;-70
2022/03/16 09:10:48;;;;;;;56.40;32.40;;;;;;;4.43;50.15;102021.08;107580;1247;60730;-69
2022/03/16 09:13:17;;;;;;;59.70;34.40;;;;;;;4.43;50.09;102017.11;107570;1247;60150;-69
2022/03/16 09:15:49;;;;;;;56.50;34.20;;;;;;;4.37;50.10;102012.64;107519;1248;74300;-68
2022/03/16 09:18:18;;;;;;;63.70;35.00;;;;;;;4.42;49.87;102010.09;107565;1247;71928;-70
2022/03/16 09:20:51;;;;;;;;;;;;;;;4.43;49.84;102008.30;107337;1247;69486;-69
2022/03/16 09:23:20;;;;;;;63.50;34.10;;;;;;;4.47;49.80;102015.11;107535;1247;71716;-70
2022/03/16 09:25:49;;;;;;;60.20;35.20;;;;;;;4.45;49.74;102025.69;107428;1247;60168;-71
2022/03/16 09:28:19;;;;;;;64.80;34.50;;;;;;;4.51;49.72;102032.63;107451;1246;59633;-71
2022/03/16 09:30:48;;;;;;;57.00;32.70;;;;;;;4.54;49.65;102031.86;107370;1246;72427;-71
2022/03/16 09:33:17;;;;;;;58.90;32.40;;;;;;;4.51;49.63;102028.30;107407;1248;73175;-70
2022/03/16 09:35:47;;;;;;;54.00;31.10;;;;;;;4.53;49.59;102018.05;107440;1247;71400;-71
2022/03/16 09:38:21;;;;;;;59.90;33.70;;;;;;;4.63;49.44;102011.95;107372;1247;71009;-69
2022/03/16 09:40:56;;;;;;;55.70;32.70;;;;;;;4.70;49.64;102008.83;107401;1246;59615;-70
2022/03/16 09:43:25;;;;;;;59.30;32.30;;;;;;;4.74;49.17;102010.95;107542;1246;60519;-71
2022/03/16 09:46:02;;;;;;;54.00;31.00;;;;;;;4.69;49.20;102014.88;107501;1246;75295;-69
2022/03/16 09:48:32;;;;;;;45.90;27.90;;;;;;;4.76;49.33;102016.25;107336;1247;72291;-70
2022/03/16 09:51:02;;;;;;;54.30;29.80;;;;;;;4.80;49.49;102019.41;107263;1247;69742;-69
2022/03/16 09:53:31;;;;;;;51.90;29.60;;;;;;;4.81;49.83;102027.48;107431;1245;75496;-71
2022/03/16 09:56:01;;;;;;;48.90;27.10;;;;;;;4.78;50.05;102028.10;107390;1248;59569;-69
2022/03/16 09:58:31;;;;;;;40.90;24.60;;;;;;;4.84;50.26;102027.56;107294;1248;59695;-70
2022/03/16 10:01:05;;;;;;;42.80;24.80;;;;;;;4.94;50.64;102023.16;107582;1247;71725;-69
2022/03/16 10:03:36;;;;;;;46.70;23.60;;;;;;;4.96;50.35;102023.27;107591;1246;69756;-70
2022/03/16 10:06:08;;;;;;;43.50;24.90;;;;;;;4.99;50.70;102033.21;107476;1247;69288;-70
2022/03/16 10:08:37;;;;;;;43.60;25.40;;;;;;;4.96;50.95;102041.25;107375;1247;73470;-70
2022/03/16 10:14:14;;;;;;;44.50;25.90;;;;;;;4.96;51.36;102039.16;107424;1246;61293;-70
2022/03/16 10:19:57;;;;;;;43.00;23.90;;;;;;;4.93;51.76;102035.96;107715;1247;72235;-71
2022/03/16 10:22:31;;;;;;;42.40;23.70;;;;;;;4.92;52.15;102045.31;107521;1247;71821;-69
2022/03/16 10:25:07;;;;;;;43.00;23.80;;;;;;;5.05;51.96;102055.84;107518;1248;72802;-71
2022/03/16 10:27:37;;;;;;;44.70;24.00;;;;;;;5.06;51.71;102049.92;107639;1247;60068;-71
2022/03/16 10:30:08;;;;;;;56.90;24.70;;;;;;;4.95;52.00;102048.54;107631;1246;61412;-69
2022/03/16 10:32:53;;;;;;;46.10;24.10;;;;;;;5.01;52.30;102055.93;107439;1247;74634;-68
2022/03/16 10:35:24;;;;;;;41.80;24.90;;;;;;;4.98;52.36;102061.73;107465;1247;72131;-71
2022/03/16 10:38:07;;;;;;;39.90;24.30;;;;;;;4.90;52.68;102059.01;107463;1247;69631;-70
2022/03/16 10:40:36;;;;;;;41.10;22.20;;;;;;;4.80;53.17;102059.10;107439;1247;74904;-70
2022/03/16 10:49:12;;;;;;;36.50;22.20;;;;;;;4.89;53.99;102053.70;107544;1247;71758;-70
2022/03/16 10:51:41;;;;;;;37.40;21.90;;;;;;;4.87;54.02;102047.52;107461;1247;72243;-71
2022/03/16 10:54:27;;;;;;;39.40;21.60;;;;;;;4.72;54.44;102056.56;107459;1247;70436;-70
2022/03/16 10:57:00;;;;;;;34.90;21.10;;;;;;;4.62;54.94;102055.62;107659;1247;74386;-70
2022/03/16 10:59:34;;;;;;;37.10;21.00;;;;;;;4.68;55.15;102055.12;107558;1247;61937;-70
2022/03/16 11:02:12;;;;;;;36.10;20.20;;;;;;;4.59;55.25;102049.48;107571;1247;61071;-69
2022/03/16 11:04:47;;;;;;;37.50;20.30;;;;;;;4.56;55.64;102050.26;107426;1247;72513;-70
2022/03/16 11:07:18;;;;;;;33.50;20.10;;;;;;;4.58;55.74;102054.00;107413;1248;70433;-69
2022/03/16 11:09:49;;;;;;;33.60;20.60;;;;;;;4.55;56.11;102066.50;107582;1248;70746;-69
2022/03/16 11:15:11;;;;;;;41.50;21.30;;;;;;;4.33;56.86;102079.30;107492;1247;59644;-70
2022/03/16 11:17:41;;;;;;;32.60;20.00;;;;;;;4.31;57.30;102082.80;107620;1247;59682;-70
2022/03/16 11:20:11;;;;;;;34.60;19.50;;;;;;;4.30;56.80;102079.20;107491;1247;75408;-70
2022/03/16 11:26:05;;;;;;;31.20;17.70;;;;;;;4.11;57.19;102083.95;107772;1246;69964;-69
2022/03/16 11:28:57;;;;;;;30.80;17.90;;;;;;;3.97;58.18;102086.89;107515;1247;71240;-72
2022/03/16 11:31:32;;;;;;;31.90;18.90;;;;;;;3.97;58.17;102092.56;107584;1247;59692;-70
2022/03/16 11:34:05;;;;;;;36.70;18.00;;;;;;;3.96;58.31;102093.44;107559;1247;59580;-66
2022/03/16 11:36:40;;;;;;;31.80;17.80;;;;;;;3.87;58.67;102099.35;107700;1247;72487;-70